sensor_id;sensor_type;location;lat;lon;timestamp;temperature;humidity
19340;HTU21D;9804;52.350;6.684;2022-10-22T00:01:18;15.65;-6.00
19340;HTU21D;9804;52.350;6.684;2022-10-22T00:03:44;15.61;-6.00
19340;HTU21D;9804;52.350;6.684;2022-10-22T00:06:10;15.57;-6.00
19340;HTU21D;9804;52.350;6.684;2022-10-22T00:08:35;15.54;-6.00
19340;HTU21D;9804;52.350;6.684;2022-10-22T00:11:27;15.44;-6.00
19340;HTU21D;9804;52.350;6.684;2022-10-22T00:13:52;15.48;-6.00
19340;HTU21D;9804;52.350;6.684;2022-10-22T00:16:18;15.45;-6.00
19340;HTU21D;9804;52.350;6.684;2022-10-22T00:18:43;15.36;-6.00
19340;HTU21D;9804;52.350;6.684;2022-10-22T00:21:11;15.38;-6.00
19340;HTU21D;9804;52.350;6.684;2022-10-22T00:23:40;15.44;-6.00
19340;HTU21D;9804;52.350;6.684;2022-10-22T00:26:06;15.39;-6.00
19340;HTU21D;9804;52.350;6.684;2022-10-22T00:28:32;15.51;-6.00
19340;HTU21D;9804;52.350;6.684;2022-10-22T00:30:58;15.39;-6.00
19340;HTU21D;9804;52.350;6.684;2022-10-22T00:33:25;15.52;-6.00
19340;HTU21D;9804;52.350;6.684;2022-10-22T00:35:50;15.49;-6.00
19340;HTU21D;9804;52.350;6.684;2022-10-22T00:38:16;15.49;-6.00
19340;HTU21D;9804;52.350;6.684;2022-10-22T00:40:41;15.38;-6.00
19340;HTU21D;9804;52.350;6.684;2022-10-22T00:43:11;15.49;-6.00
19340;HTU21D;9804;52.350;6.684;2022-10-22T00:45:37;15.51;-6.00
19340;HTU21D;9804;52.350;6.684;2022-10-22T00:48:08;15.52;-6.00
19340;HTU21D;9804;52.350;6.684;2022-10-22T00:50:44;15.47;-6.00
19340;HTU21D;9804;52.350;6.684;2022-10-22T00:53:18;15.42;-6.00
19340;HTU21D;9804;52.350;6.684;2022-10-22T00:55:45;15.53;-6.00
19340;HTU21D;9804;52.350;6.684;2022-10-22T00:58:12;15.55;-6.00
19340;HTU21D;9804;52.350;6.684;2022-10-22T01:00:38;15.57;-6.00
19340;HTU21D;9804;52.350;6.684;2022-10-22T01:03:03;15.52;-6.00
19340;HTU21D;9804;52.350;6.684;2022-10-22T01:05:30;15.41;-6.00
19340;HTU21D;9804;52.350;6.684;2022-10-22T01:07:57;15.42;-6.00
19340;HTU21D;9804;52.350;6.684;2022-10-22T01:15:44;15.43;-6.00
19340;HTU21D;9804;52.350;6.684;2022-10-22T01:18:23;15.43;-6.00
19340;HTU21D;9804;52.350;6.684;2022-10-22T01:21:14;15.51;-6.00
19340;HTU21D;9804;52.350;6.684;2022-10-22T01:24:05;15.43;-6.00
19340;HTU21D;9804;52.350;6.684;2022-10-22T01:26:59;15.47;-6.00
19340;HTU21D;9804;52.350;6.684;2022-10-22T01:29:40;15.47;-6.00
19340;HTU21D;9804;52.350;6.684;2022-10-22T01:32:11;15.45;-6.00
19340;HTU21D;9804;52.350;6.684;2022-10-22T01:34:39;15.38;-6.00
19340;HTU21D;9804;52.350;6.684;2022-10-22T01:37:07;15.31;-6.00
19340;HTU21D;9804;52.350;6.684;2022-10-22T01:39:33;15.30;-6.00
19340;HTU21D;9804;52.350;6.684;2022-10-22T01:41:59;15.32;-6.00
19340;HTU21D;9804;52.350;6.684;2022-10-22T01:44:26;15.25;-6.00
19340;HTU21D;9804;52.350;6.684;2022-10-22T01:47:01;15.19;-6.00
19340;HTU21D;9804;52.350;6.684;2022-10-22T01:52:23;15.15;-6.00
19340;HTU21D;9804;52.350;6.684;2022-10-22T01:55:18;15.07;-6.00
19340;HTU21D;9804;52.350;6.684;2022-10-22T01:58:19;15.01;-6.00
19340;HTU21D;9804;52.350;6.684;2022-10-22T02:00:57;15.12;-6.00
19340;HTU21D;9804;52.350;6.684;2022-10-22T02:03:28;15.12;-6.00
19340;HTU21D;9804;52.350;6.684;2022-10-22T02:05:58;15.17;-6.00
19340;HTU21D;9804;52.350;6.684;2022-10-22T02:08:31;15.11;-6.00
19340;HTU21D;9804;52.350;6.684;2022-10-22T02:10:58;15.09;-6.00
19340;HTU21D;9804;52.350;6.684;2022-10-22T02:13:31;15.02;-6.00
19340;HTU21D;9804;52.350;6.684;2022-10-22T02:16:00;14.97;-6.00
19340;HTU21D;9804;52.350;6.684;2022-10-22T02:18:29;14.97;-6.00
19340;HTU21D;9804;52.350;6.684;2022-10-22T02:20:55;14.95;-6.00
19340;HTU21D;9804;52.350;6.684;2022-10-22T02:23:21;14.95;-6.00
19340;HTU21D;9804;52.350;6.684;2022-10-22T02:25:52;14.94;-6.00
19340;HTU21D;9804;52.350;6.684;2022-10-22T02:28:24;15.04;-6.00
19340;HTU21D;9804;52.350;6.684;2022-10-22T02:30:53;15.07;-6.00
19340;HTU21D;9804;52.350;6.684;2022-10-22T02:33:27;15.07;-6.00
19340;HTU21D;9804;52.350;6.684;2022-10-22T02:35:54;15.03;-6.00
19340;HTU21D;9804;52.350;6.684;2022-10-22T02:38:21;14.99;-6.00
19340;HTU21D;9804;52.350;6.684;2022-10-22T02:40:47;14.89;-6.00
19340;HTU21D;9804;52.350;6.684;2022-10-22T02:43:12;14.87;-6.00
19340;HTU21D;9804;52.350;6.684;2022-10-22T02:45:38;14.86;-6.00
19340;HTU21D;9804;52.350;6.684;2022-10-22T02:48:03;14.85;-6.00
19340;HTU21D;9804;52.350;6.684;2022-10-22T02:50:29;14.87;-6.00
19340;HTU21D;9804;52.350;6.684;2022-10-22T02:52:54;14.87;-6.00
19340;HTU21D;9804;52.350;6.684;2022-10-22T02:55:19;14.86;-6.00
19340;HTU21D;9804;52.350;6.684;2022-10-22T02:57:45;14.85;-6.00
19340;HTU21D;9804;52.350;6.684;2022-10-22T03:00:11;14.88;-6.00
19340;HTU21D;9804;52.350;6.684;2022-10-22T03:02:36;14.87;-6.00
19340;HTU21D;9804;52.350;6.684;2022-10-22T03:05:03;14.93;-6.00
19340;HTU21D;9804;52.350;6.684;2022-10-22T03:07:28;14.92;-6.00
19340;HTU21D;9804;52.350;6.684;2022-10-22T03:09:54;14.96;-6.00
19340;HTU21D;9804;52.350;6.684;2022-10-22T03:12:19;14.95;-6.00
19340;HTU21D;9804;52.350;6.684;2022-10-22T03:14:44;14.92;-6.00
19340;HTU21D;9804;52.350;6.684;2022-10-22T03:17:10;14.87;-6.00
19340;HTU21D;9804;52.350;6.684;2022-10-22T03:19:35;14.82;-6.00
19340;HTU21D;9804;52.350;6.684;2022-10-22T03:22:22;14.93;-6.00
19340;HTU21D;9804;52.350;6.684;2022-10-22T03:24:52;14.85;-6.00
19340;HTU21D;9804;52.350;6.684;2022-10-22T03:27:19;14.93;-6.00
19340;HTU21D;9804;52.350;6.684;2022-10-22T03:29:45;14.84;-6.00
19340;HTU21D;9804;52.350;6.684;2022-10-22T03:32:12;14.84;-6.00
19340;HTU21D;9804;52.350;6.684;2022-10-22T03:34:37;14.82;-6.00
19340;HTU21D;9804;52.350;6.684;2022-10-22T03:37:03;14.88;-6.00
19340;HTU21D;9804;52.350;6.684;2022-10-22T03:39:30;14.84;-6.00
19340;HTU21D;9804;52.350;6.684;2022-10-22T03:41:57;14.91;-6.00
19340;HTU21D;9804;52.350;6.684;2022-10-22T03:44:23;14.81;-6.00
19340;HTU21D;9804;52.350;6.684;2022-10-22T03:46:49;14.82;-6.00
19340;HTU21D;9804;52.350;6.684;2022-10-22T03:49:14;14.89;-6.00
19340;HTU21D;9804;52.350;6.684;2022-10-22T03:51:39;14.86;-6.00
19340;HTU21D;9804;52.350;6.684;2022-10-22T03:54:05;14.85;-6.00
19340;HTU21D;9804;52.350;6.684;2022-10-22T03:56:31;14.92;-6.00
19340;HTU21D;9804;52.350;6.684;2022-10-22T03:58:58;14.78;-6.00
19340;HTU21D;9804;52.350;6.684;2022-10-22T04:01:24;14.87;-6.00
19340;HTU21D;9804;52.350;6.684;2022-10-22T04:03:49;14.72;-6.00
19340;HTU21D;9804;52.350;6.684;2022-10-22T04:06:15;14.80;-6.00
19340;HTU21D;9804;52.350;6.684;2022-10-22T04:08:42;14.83;-6.00
19340;HTU21D;9804;52.350;6.684;2022-10-22T04:11:08;14.88;-6.00
19340;HTU21D;9804;52.350;6.684;2022-10-22T04:13:34;14.79;-6.00
19340;HTU21D;9804;52.350;6.684;2022-10-22T04:16:24;14.91;-6.00
19340;HTU21D;9804;52.350;6.684;2022-10-22T04:18:55;14.83;-6.00
19340;HTU21D;9804;52.350;6.684;2022-10-22T04:21:20;14.81;-6.00
19340;HTU21D;9804;52.350;6.684;2022-10-22T04:23:48;14.78;-6.00
19340;HTU21D;9804;52.350;6.684;2022-10-22T04:26:15;14.85;-6.00
19340;HTU21D;9804;52.350;6.684;2022-10-22T04:28:40;14.82;-6.00
19340;HTU21D;9804;52.350;6.684;2022-10-22T04:31:07;14.85;-6.00
19340;HTU21D;9804;52.350;6.684;2022-10-22T04:33:33;14.73;-6.00
19340;HTU21D;9804;52.350;6.684;2022-10-22T04:35:58;14.79;-6.00
19340;HTU21D;9804;52.350;6.684;2022-10-22T04:38:23;14.74;-6.00
19340;HTU21D;9804;52.350;6.684;2022-10-22T04:40:49;14.66;-6.00
19340;HTU21D;9804;52.350;6.684;2022-10-22T04:43:14;14.81;-6.00
19340;HTU21D;9804;52.350;6.684;2022-10-22T04:45:39;14.77;-6.00
19340;HTU21D;9804;52.350;6.684;2022-10-22T04:48:05;14.78;-6.00
19340;HTU21D;9804;52.350;6.684;2022-10-22T04:50:30;14.85;-6.00
19340;HTU21D;9804;52.350;6.684;2022-10-22T04:52:56;14.89;-6.00
19340;HTU21D;9804;52.350;6.684;2022-10-22T04:55:21;14.88;-6.00
19340;HTU21D;9804;52.350;6.684;2022-10-22T04:57:46;14.89;-6.00
19340;HTU21D;9804;52.350;6.684;2022-10-22T05:00:12;14.97;-6.00
19340;HTU21D;9804;52.350;6.684;2022-10-22T05:02:37;14.99;-6.00
19340;HTU21D;9804;52.350;6.684;2022-10-22T05:05:03;14.96;-6.00
19340;HTU21D;9804;52.350;6.684;2022-10-22T05:07:28;15.02;-6.00
19340;HTU21D;9804;52.350;6.684;2022-10-22T05:09:54;14.99;-6.00
19340;HTU21D;9804;52.350;6.684;2022-10-22T05:12:19;15.14;-6.00
19340;HTU21D;9804;52.350;6.684;2022-10-22T05:14:44;15.10;-6.00
19340;HTU21D;9804;52.350;6.684;2022-10-22T05:17:10;15.01;-6.00
19340;HTU21D;9804;52.350;6.684;2022-10-22T05:19:35;15.08;-6.00
19340;HTU21D;9804;52.350;6.684;2022-10-22T05:22:03;15.08;-6.00
19340;HTU21D;9804;52.350;6.684;2022-10-22T05:24:30;15.10;-6.00
19340;HTU21D;9804;52.350;6.684;2022-10-22T05:26:56;15.07;-6.00
19340;HTU21D;9804;52.350;6.684;2022-10-22T05:29:23;15.24;-6.00
19340;HTU21D;9804;52.350;6.684;2022-10-22T05:31:49;15.11;-6.00
19340;HTU21D;9804;52.350;6.684;2022-10-22T05:34:14;15.07;-6.00
19340;HTU21D;9804;52.350;6.684;2022-10-22T05:36:40;15.07;-6.00
19340;HTU21D;9804;52.350;6.684;2022-10-22T05:39:05;15.13;-6.00
19340;HTU21D;9804;52.350;6.684;2022-10-22T05:41:32;15.09;-6.00
19340;HTU21D;9804;52.350;6.684;2022-10-22T05:43:58;14.96;-6.00
19340;HTU21D;9804;52.350;6.684;2022-10-22T05:46:28;15.03;-6.00
19340;HTU21D;9804;52.350;6.684;2022-10-22T05:48:56;15.01;-6.00
19340;HTU21D;9804;52.350;6.684;2022-10-22T05:51:24;15.03;-6.00
19340;HTU21D;9804;52.350;6.684;2022-10-22T05:53:52;14.94;-6.00
19340;HTU21D;9804;52.350;6.684;2022-10-22T05:56:18;14.98;-6.00
19340;HTU21D;9804;52.350;6.684;2022-10-22T05:58:43;15.07;-6.00
19340;HTU21D;9804;52.350;6.684;2022-10-22T06:01:15;15.16;-6.00
19340;HTU21D;9804;52.350;6.684;2022-10-22T06:03:41;15.18;-6.00
19340;HTU21D;9804;52.350;6.684;2022-10-22T06:06:17;15.16;-6.00
19340;HTU21D;9804;52.350;6.684;2022-10-22T06:08:45;15.19;-6.00
19340;HTU21D;9804;52.350;6.684;2022-10-22T06:11:11;15.17;-6.00
19340;HTU21D;9804;52.350;6.684;2022-10-22T06:13:36;15.08;-6.00
19340;HTU21D;9804;52.350;6.684;2022-10-22T06:16:02;15.19;-6.00
19340;HTU21D;9804;52.350;6.684;2022-10-22T06:18:28;15.14;-6.00
19340;HTU21D;9804;52.350;6.684;2022-10-22T06:20:53;15.19;-6.00
19340;HTU21D;9804;52.350;6.684;2022-10-22T06:23:18;15.08;-6.00
19340;HTU21D;9804;52.350;6.684;2022-10-22T06:25:55;15.23;-6.00
19340;HTU21D;9804;52.350;6.684;2022-10-22T06:28:20;15.13;-6.00
19340;HTU21D;9804;52.350;6.684;2022-10-22T06:30:45;15.27;-6.00
19340;HTU21D;9804;52.350;6.684;2022-10-22T06:33:11;15.11;-6.00
19340;HTU21D;9804;52.350;6.684;2022-10-22T06:35:36;15.23;-6.00
19340;HTU21D;9804;52.350;6.684;2022-10-22T06:38:01;15.23;-6.00
19340;HTU21D;9804;52.350;6.684;2022-10-22T06:40:26;15.28;-6.00
19340;HTU21D;9804;52.350;6.684;2022-10-22T06:42:52;15.32;-6.00
19340;HTU21D;9804;52.350;6.684;2022-10-22T06:45:17;15.33;-6.00
19340;HTU21D;9804;52.350;6.684;2022-10-22T06:47:42;15.32;-6.00
19340;HTU21D;9804;52.350;6.684;2022-10-22T06:50:08;15.37;-6.00
19340;HTU21D;9804;52.350;6.684;2022-10-22T06:52:33;15.41;-6.00
19340;HTU21D;9804;52.350;6.684;2022-10-22T06:54:59;15.49;-6.00
19340;HTU21D;9804;52.350;6.684;2022-10-22T06:57:24;15.60;-6.00
19340;HTU21D;9804;52.350;6.684;2022-10-22T06:59:49;15.75;-6.00
19340;HTU21D;9804;52.350;6.684;2022-10-22T07:02:15;15.71;-6.00
19340;HTU21D;9804;52.350;6.684;2022-10-22T07:04:40;15.66;-6.00
19340;HTU21D;9804;52.350;6.684;2022-10-22T07:07:06;15.59;-6.00
19340;HTU21D;9804;52.350;6.684;2022-10-22T07:09:31;15.75;-6.00
19340;HTU21D;9804;52.350;6.684;2022-10-22T07:11:56;15.70;-6.00
19340;HTU21D;9804;52.350;6.684;2022-10-22T07:14:22;15.89;-6.00
19340;HTU21D;9804;52.350;6.684;2022-10-22T07:16:47;15.81;-6.00
19340;HTU21D;9804;52.350;6.684;2022-10-22T07:19:13;15.77;-6.00
19340;HTU21D;9804;52.350;6.684;2022-10-22T07:21:38;15.82;-6.00
19340;HTU21D;9804;52.350;6.684;2022-10-22T07:24:04;15.74;-6.00
19340;HTU21D;9804;52.350;6.684;2022-10-22T07:26:30;15.93;-6.00
19340;HTU21D;9804;52.350;6.684;2022-10-22T07:28:57;16.03;-6.00
19340;HTU21D;9804;52.350;6.684;2022-10-22T07:31:22;16.03;-6.00
19340;HTU21D;9804;52.350;6.684;2022-10-22T07:33:48;16.06;-6.00
19340;HTU21D;9804;52.350;6.684;2022-10-22T07:36:14;16.25;-6.00
19340;HTU21D;9804;52.350;6.684;2022-10-22T07:38:46;16.29;-6.00
19340;HTU21D;9804;52.350;6.684;2022-10-22T07:41:12;16.40;-6.00
19340;HTU21D;9804;52.350;6.684;2022-10-22T07:43:38;16.57;-6.00
19340;HTU21D;9804;52.350;6.684;2022-10-22T07:46:03;16.50;-6.00
19340;HTU21D;9804;52.350;6.684;2022-10-22T07:48:29;16.56;-6.00
19340;HTU21D;9804;52.350;6.684;2022-10-22T07:50:54;16.56;-6.00
19340;HTU21D;9804;52.350;6.684;2022-10-22T07:53:21;16.65;-6.00
19340;HTU21D;9804;52.350;6.684;2022-10-22T07:55:47;16.79;-6.00
19340;HTU21D;9804;52.350;6.684;2022-10-22T07:58:13;16.67;-6.00
19340;HTU21D;9804;52.350;6.684;2022-10-22T08:00:38;16.59;-6.00
19340;HTU21D;9804;52.350;6.684;2022-10-22T08:03:03;16.64;-6.00
19340;HTU21D;9804;52.350;6.684;2022-10-22T08:05:29;16.44;-6.00
19340;HTU21D;9804;52.350;6.684;2022-10-22T08:07:54;16.67;-6.00
19340;HTU21D;9804;52.350;6.684;2022-10-22T08:10:19;16.56;-6.00
19340;HTU21D;9804;52.350;6.684;2022-10-22T08:12:45;16.60;-6.00
19340;HTU21D;9804;52.350;6.684;2022-10-22T08:15:10;16.72;-6.00
19340;HTU21D;9804;52.350;6.684;2022-10-22T08:17:35;16.65;-6.00
19340;HTU21D;9804;52.350;6.684;2022-10-22T08:20:01;16.76;-6.00
19340;HTU21D;9804;52.350;6.684;2022-10-22T08:22:26;16.66;-6.00
19340;HTU21D;9804;52.350;6.684;2022-10-22T08:24:51;16.81;-6.00
19340;HTU21D;9804;52.350;6.684;2022-10-22T08:27:17;16.79;-6.00
19340;HTU21D;9804;52.350;6.684;2022-10-22T08:29:43;17.11;-6.00
19340;HTU21D;9804;52.350;6.684;2022-10-22T08:32:08;16.93;-6.00
19340;HTU21D;9804;52.350;6.684;2022-10-22T08:34:33;17.06;-6.00
19340;HTU21D;9804;52.350;6.684;2022-10-22T08:36:58;17.22;-6.00
19340;HTU21D;9804;52.350;6.684;2022-10-22T08:39:24;17.38;-6.00
19340;HTU21D;9804;52.350;6.684;2022-10-22T08:42:28;17.47;-6.00
19340;HTU21D;9804;52.350;6.684;2022-10-22T08:50:18;17.63;-6.00
19340;HTU21D;9804;52.350;6.684;2022-10-22T08:52:48;17.90;-6.00
19340;HTU21D;9804;52.350;6.684;2022-10-22T08:55:15;17.94;-6.00
19340;HTU21D;9804;52.350;6.684;2022-10-22T08:57:54;18.05;-6.00
19340;HTU21D;9804;52.350;6.684;2022-10-22T09:00:23;18.09;-6.00
19340;HTU21D;9804;52.350;6.684;2022-10-22T09:08:23;18.00;-6.00
19340;HTU21D;9804;52.350;6.684;2022-10-22T09:10:52;18.19;-6.00
19340;HTU21D;9804;52.350;6.684;2022-10-22T09:13:20;18.33;-6.00
19340;HTU21D;9804;52.350;6.684;2022-10-22T09:15:51;18.23;-6.00
19340;HTU21D;9804;52.350;6.684;2022-10-22T09:18:23;18.38;-6.00
19340;HTU21D;9804;52.350;6.684;2022-10-22T09:24:04;18.56;-6.00
19340;HTU21D;9804;52.350;6.684;2022-10-22T09:26:33;18.53;-6.00
19340;HTU21D;9804;52.350;6.684;2022-10-22T09:29:01;18.71;-6.00
19340;HTU21D;9804;52.350;6.684;2022-10-22T09:31:29;18.47;-6.00
19340;HTU21D;9804;52.350;6.684;2022-10-22T09:33:55;18.85;-6.00
19340;HTU21D;9804;52.350;6.684;2022-10-22T09:36:22;18.46;-6.00
19340;HTU21D;9804;52.350;6.684;2022-10-22T09:38:51;18.63;-6.00
19340;HTU21D;9804;52.350;6.684;2022-10-22T09:41:18;18.76;-6.00
19340;HTU21D;9804;52.350;6.684;2022-10-22T09:43:48;18.63;-6.00
19340;HTU21D;9804;52.350;6.684;2022-10-22T09:46:22;18.33;-6.00
19340;HTU21D;9804;52.350;6.684;2022-10-22T09:48:57;18.69;-6.00
19340;HTU21D;9804;52.350;6.684;2022-10-22T09:54:18;18.74;-6.00
19340;HTU21D;9804;52.350;6.684;2022-10-22T09:56:54;18.47;-6.00
19340;HTU21D;9804;52.350;6.684;2022-10-22T09:59:28;18.56;-6.00
19340;HTU21D;9804;52.350;6.684;2022-10-22T10:02:14;18.46;-6.00
19340;HTU21D;9804;52.350;6.684;2022-10-22T10:04:44;18.69;-6.00
19340;HTU21D;9804;52.350;6.684;2022-10-22T10:07:19;18.55;-6.00
19340;HTU21D;9804;52.350;6.684;2022-10-22T10:09:45;18.63;-6.00
19340;HTU21D;9804;52.350;6.684;2022-10-22T10:15:27;18.69;-6.00
19340;HTU21D;9804;52.350;6.684;2022-10-22T10:18:11;18.93;-6.00
19340;HTU21D;9804;52.350;6.684;2022-10-22T10:21:00;18.74;-6.00
19340;HTU21D;9804;52.350;6.684;2022-10-22T10:24:22;18.51;-6.00
19340;HTU21D;9804;52.350;6.684;2022-10-22T10:26:53;18.70;-6.00
19340;HTU21D;9804;52.350;6.684;2022-10-22T10:29:31;18.83;-6.00
19340;HTU21D;9804;52.350;6.684;2022-10-22T10:37:45;18.46;-6.00
19340;HTU21D;9804;52.350;6.684;2022-10-22T10:51:07;18.33;-6.00
19340;HTU21D;9804;52.350;6.684;2022-10-22T10:53:56;18.14;-6.00
19340;HTU21D;9804;52.350;6.684;2022-10-22T11:04:24;18.18;-6.00
19340;HTU21D;9804;52.350;6.684;2022-10-22T11:07:01;18.29;-6.00
19340;HTU21D;9804;52.350;6.684;2022-10-22T11:09:42;18.58;-6.00
19340;HTU21D;9804;52.350;6.684;2022-10-22T11:12:14;18.66;-6.00
19340;HTU21D;9804;52.350;6.684;2022-10-22T11:15:00;18.79;-6.00
19340;HTU21D;9804;52.350;6.684;2022-10-22T11:17:47;19.02;-6.00
19340;HTU21D;9804;52.350;6.684;2022-10-22T11:20:21;19.00;-6.00
19340;HTU21D;9804;52.350;6.684;2022-10-22T11:22:54;19.00;-6.00
19340;HTU21D;9804;52.350;6.684;2022-10-22T11:25:24;19.25;-6.00
19340;HTU21D;9804;52.350;6.684;2022-10-22T11:28:02;19.10;-6.00
19340;HTU21D;9804;52.350;6.684;2022-10-22T11:30:32;19.27;-6.00
19340;HTU21D;9804;52.350;6.684;2022-10-22T11:33:03;19.07;-6.00
19340;HTU21D;9804;52.350;6.684;2022-10-22T11:35:36;19.26;-6.00
19340;HTU21D;9804;52.350;6.684;2022-10-22T11:38:05;19.32;-6.00
19340;HTU21D;9804;52.350;6.684;2022-10-22T11:40:35;19.45;-6.00
19340;HTU21D;9804;52.350;6.684;2022-10-22T11:43:06;19.46;-6.00
19340;HTU21D;9804;52.350;6.684;2022-10-22T11:45:37;19.27;-6.00
19340;HTU21D;9804;52.350;6.684;2022-10-22T11:55:46;19.67;-6.00
19340;HTU21D;9804;52.350;6.684;2022-10-22T11:58:27;19.76;-6.00
19340;HTU21D;9804;52.350;6.684;2022-10-22T12:01:16;19.87;-6.00
19340;HTU21D;9804;52.350;6.684;2022-10-22T12:04:13;19.74;-6.00
19340;HTU21D;9804;52.350;6.684;2022-10-22T12:06:58;19.90;-6.00
19340;HTU21D;9804;52.350;6.684;2022-10-22T12:09:25;19.68;-6.00
19340;HTU21D;9804;52.350;6.684;2022-10-22T12:12:09;19.67;-6.00
19340;HTU21D;9804;52.350;6.684;2022-10-22T12:14:53;19.71;-6.00
19340;HTU21D;9804;52.350;6.684;2022-10-22T12:17:21;19.58;-6.00
19340;HTU21D;9804;52.350;6.684;2022-10-22T12:19:50;19.90;-6.00
19340;HTU21D;9804;52.350;6.684;2022-10-22T12:22:22;19.95;-6.00
19340;HTU21D;9804;52.350;6.684;2022-10-22T12:24:53;20.00;-6.00
19340;HTU21D;9804;52.350;6.684;2022-10-22T12:27:22;19.90;-6.00
19340;HTU21D;9804;52.350;6.684;2022-10-22T12:29:52;19.99;-6.00
19340;HTU21D;9804;52.350;6.684;2022-10-22T12:32:17;20.28;-6.00
19340;HTU21D;9804;52.350;6.684;2022-10-22T12:34:50;20.21;-6.00
19340;HTU21D;9804;52.350;6.684;2022-10-22T12:37:16;20.01;-6.00
19340;HTU21D;9804;52.350;6.684;2022-10-22T12:39:44;20.03;-6.00
19340;HTU21D;9804;52.350;6.684;2022-10-22T12:42:18;20.17;-6.00
19340;HTU21D;9804;52.350;6.684;2022-10-22T12:44:44;19.99;-6.00
19340;HTU21D;9804;52.350;6.684;2022-10-22T12:47:14;19.98;-6.00
19340;HTU21D;9804;52.350;6.684;2022-10-22T12:49:43;20.13;-6.00
19340;HTU21D;9804;52.350;6.684;2022-10-22T12:52:15;20.18;-6.00
19340;HTU21D;9804;52.350;6.684;2022-10-22T12:54:41;20.26;-6.00
19340;HTU21D;9804;52.350;6.684;2022-10-22T12:57:12;20.30;-6.00
19340;HTU21D;9804;52.350;6.684;2022-10-22T12:59:40;19.96;-6.00
19340;HTU21D;9804;52.350;6.684;2022-10-22T13:04:40;20.07;-6.00
19340;HTU21D;9804;52.350;6.684;2022-10-22T13:07:16;20.12;-6.00
19340;HTU21D;9804;52.350;6.684;2022-10-22T13:10:13;20.05;-6.00
19340;HTU21D;9804;52.350;6.684;2022-10-22T13:12:43;20.28;-6.00
19340;HTU21D;9804;52.350;6.684;2022-10-22T13:15:27;20.06;-6.00
19340;HTU21D;9804;52.350;6.684;2022-10-22T13:18:31;20.04;-6.00
19340;HTU21D;9804;52.350;6.684;2022-10-22T13:21:01;19.95;-6.00
19340;HTU21D;9804;52.350;6.684;2022-10-22T13:23:29;20.03;-6.00
19340;HTU21D;9804;52.350;6.684;2022-10-22T13:26:13;20.00;-6.00
19340;HTU21D;9804;52.350;6.684;2022-10-22T13:28:39;19.84;-6.00
19340;HTU21D;9804;52.350;6.684;2022-10-22T13:31:18;19.76;-6.00
19340;HTU21D;9804;52.350;6.684;2022-10-22T13:33:45;19.80;-6.00
19340;HTU21D;9804;52.350;6.684;2022-10-22T13:36:15;20.04;-6.00
19340;HTU21D;9804;52.350;6.684;2022-10-22T13:38:42;19.95;-6.00
19340;HTU21D;9804;52.350;6.684;2022-10-22T13:41:28;19.68;-6.00
19340;HTU21D;9804;52.350;6.684;2022-10-22T13:43:55;19.58;-6.00
19340;HTU21D;9804;52.350;6.684;2022-10-22T13:46:21;19.57;-6.00
19340;HTU21D;9804;52.350;6.684;2022-10-22T13:48:49;19.85;-6.00
19340;HTU21D;9804;52.350;6.684;2022-10-22T13:51:18;19.57;-6.00
19340;HTU21D;9804;52.350;6.684;2022-10-22T13:53:45;19.98;-6.00
19340;HTU21D;9804;52.350;6.684;2022-10-22T13:56:16;19.84;-6.00
19340;HTU21D;9804;52.350;6.684;2022-10-22T13:58:43;19.69;-6.00
19340;HTU21D;9804;52.350;6.684;2022-10-22T14:01:22;20.01;-6.00
19340;HTU21D;9804;52.350;6.684;2022-10-22T14:03:50;19.87;-6.00
19340;HTU21D;9804;52.350;6.684;2022-10-22T14:06:18;19.73;-6.00
19340;HTU21D;9804;52.350;6.684;2022-10-22T14:08:45;19.90;-6.00
19340;HTU21D;9804;52.350;6.684;2022-10-22T14:11:12;20.12;-6.00
19340;HTU21D;9804;52.350;6.684;2022-10-22T14:13:38;20.14;-6.00
19340;HTU21D;9804;52.350;6.684;2022-10-22T14:16:10;20.32;-6.00
19340;HTU21D;9804;52.350;6.684;2022-10-22T14:18:38;19.99;-6.00
19340;HTU21D;9804;52.350;6.684;2022-10-22T14:21:04;20.05;-6.00
19340;HTU21D;9804;52.350;6.684;2022-10-22T14:23:32;20.10;-6.00
19340;HTU21D;9804;52.350;6.684;2022-10-22T14:25:59;20.06;-6.00
19340;HTU21D;9804;52.350;6.684;2022-10-22T14:28:24;19.83;-6.00
19340;HTU21D;9804;52.350;6.684;2022-10-22T14:30:50;20.13;-6.00
19340;HTU21D;9804;52.350;6.684;2022-10-22T14:33:20;20.13;-6.00
19340;HTU21D;9804;52.350;6.684;2022-10-22T14:35:47;20.18;-6.00
19340;HTU21D;9804;52.350;6.684;2022-10-22T14:38:12;19.94;-6.00
19340;HTU21D;9804;52.350;6.684;2022-10-22T14:40:39;19.51;-6.00
19340;HTU21D;9804;52.350;6.684;2022-10-22T14:43:30;19.65;-6.00
19340;HTU21D;9804;52.350;6.684;2022-10-22T14:45:56;19.80;-6.00
19340;HTU21D;9804;52.350;6.684;2022-10-22T14:48:21;19.88;-6.00
19340;HTU21D;9804;52.350;6.684;2022-10-22T14:50:47;19.86;-6.00
19340;HTU21D;9804;52.350;6.684;2022-10-22T14:53:13;20.05;-6.00
19340;HTU21D;9804;52.350;6.684;2022-10-22T14:55:39;19.83;-6.00
19340;HTU21D;9804;52.350;6.684;2022-10-22T14:58:05;19.75;-6.00
19340;HTU21D;9804;52.350;6.684;2022-10-22T15:00:31;19.99;-6.00
19340;HTU21D;9804;52.350;6.684;2022-10-22T15:02:58;19.51;-6.00
19340;HTU21D;9804;52.350;6.684;2022-10-22T15:05:23;19.76;-6.00
19340;HTU21D;9804;52.350;6.684;2022-10-22T15:07:49;19.89;-6.00
19340;HTU21D;9804;52.350;6.684;2022-10-22T15:10:14;19.71;-6.00
19340;HTU21D;9804;52.350;6.684;2022-10-22T15:12:40;19.54;-6.00
19340;HTU21D;9804;52.350;6.684;2022-10-22T15:15:06;19.63;-6.00
19340;HTU21D;9804;52.350;6.684;2022-10-22T15:17:31;19.74;-6.00
19340;HTU21D;9804;52.350;6.684;2022-10-22T15:19:57;19.42;-6.00
19340;HTU21D;9804;52.350;6.684;2022-10-22T15:22:25;19.62;-6.00
19340;HTU21D;9804;52.350;6.684;2022-10-22T15:24:52;19.48;-6.00
19340;HTU21D;9804;52.350;6.684;2022-10-22T15:27:17;19.58;-6.00
19340;HTU21D;9804;52.350;6.684;2022-10-22T15:29:43;19.47;-6.00
19340;HTU21D;9804;52.350;6.684;2022-10-22T15:32:09;19.33;-6.00
19340;HTU21D;9804;52.350;6.684;2022-10-22T15:34:36;19.39;-6.00
19340;HTU21D;9804;52.350;6.684;2022-10-22T15:37:04;19.23;-6.00
19340;HTU21D;9804;52.350;6.684;2022-10-22T15:39:31;19.03;-6.00
19340;HTU21D;9804;52.350;6.684;2022-10-22T15:41:57;19.15;-6.00
19340;HTU21D;9804;52.350;6.684;2022-10-22T15:44:24;18.99;-6.00
19340;HTU21D;9804;52.350;6.684;2022-10-22T15:46:51;18.87;-6.00
19340;HTU21D;9804;52.350;6.684;2022-10-22T15:49:17;18.91;-6.00
19340;HTU21D;9804;52.350;6.684;2022-10-22T15:51:43;19.09;-6.00
19340;HTU21D;9804;52.350;6.684;2022-10-22T15:54:13;19.07;-6.00
19340;HTU21D;9804;52.350;6.684;2022-10-22T15:56:39;19.05;-6.00
19340;HTU21D;9804;52.350;6.684;2022-10-22T15:59:05;18.96;-6.00
19340;HTU21D;9804;52.350;6.684;2022-10-22T16:01:32;18.87;-6.00
19340;HTU21D;9804;52.350;6.684;2022-10-22T16:03:58;18.84;-6.00
19340;HTU21D;9804;52.350;6.684;2022-10-22T16:06:36;18.83;-6.00
19340;HTU21D;9804;52.350;6.684;2022-10-22T16:09:05;18.79;-6.00
19340;HTU21D;9804;52.350;6.684;2022-10-22T16:11:31;18.70;-6.00
19340;HTU21D;9804;52.350;6.684;2022-10-22T16:13:57;18.62;-6.00
19340;HTU21D;9804;52.350;6.684;2022-10-22T16:16:25;18.57;-6.00
19340;HTU21D;9804;52.350;6.684;2022-10-22T16:18:50;18.43;-6.00
19340;HTU21D;9804;52.350;6.684;2022-10-22T16:21:17;18.39;-6.00
19340;HTU21D;9804;52.350;6.684;2022-10-22T16:23:43;18.32;-6.00
19340;HTU21D;9804;52.350;6.684;2022-10-22T16:26:08;18.22;-6.00
19340;HTU21D;9804;52.350;6.684;2022-10-22T16:28:33;18.09;-6.00
19340;HTU21D;9804;52.350;6.684;2022-10-22T16:31:03;17.98;-6.00
19340;HTU21D;9804;52.350;6.684;2022-10-22T16:33:30;17.88;-6.00
19340;HTU21D;9804;52.350;6.684;2022-10-22T16:35:55;17.81;-6.00
19340;HTU21D;9804;52.350;6.684;2022-10-22T16:38:20;17.72;-6.00
19340;HTU21D;9804;52.350;6.684;2022-10-22T16:40:45;17.63;-6.00
19340;HTU21D;9804;52.350;6.684;2022-10-22T16:43:11;17.55;-6.00
19340;HTU21D;9804;52.350;6.684;2022-10-22T16:45:36;17.45;-6.00